Sudbury Airport
CYSB : now visible

Airfield :











YOU CAN JOIN US ON...

 
LOGIN :

Register | Disclaimer

   EN    FR    IT 

 









Legend :    VFR   Marginal VFR   IFR   Intensive IFR   Very Intensive IFR
Visi :
Ceiling :
>= 8 km
>= 3000ft
5 to 8 km
1000 to 3000 ft
1500m to 5 km
500 to 1000 ft
800 to 1500m
200 to 500 ft
< 800m
< 200 ft
Symbols :   Thunderstorms  Fog  Heavy snow  Heavy precipitations  Wind > 20 kt






- Airport Elevation : 1141 ft
- IATA code : YSB


CYSB - Sudbury

CURRENT METAR :
  • 082000Z 21012G18KT 160V230 20SM FEW048 BKN250 26/14 A3007 RMK SC2CI5 SLP183 DENSITY ALT 2500FT

EXPIRED METARs :
  • 081900Z 18014KT 20SM SCT053 OVC250 25/14 A3009 RMK SC3CI5 SLP190 DENSITY ALT 2400FT
  • 081800Z 19010G16KT 20SM SCT053 BKN220 26/13 A3011 RMK SC3CI4 SLP196 DENSITY ALT 2500FT

TAF TAF CYSB
Valid from the 08 at 20:00 until the 09 at 08:00 UTC


081938Z 0820/0908 20010G22KT P6SM SCT050 OVC240
FM090000 21010G20KT P6SM BKN060
TEMPO 0900/0903 P6SM -SHRA
FM090300 20010G20KT P6SM FEW015 BKN050
TEMPO 0903/0906 4SM -RA BR BKN015 OVC050
FM090600 20010G20KT 6SM -RA BR SCT006 OVC012
TEMPO 0906/0908 2SM -RA BR OVC006
PROB30 0906/0908 1SM -RA BR OVC003 RMK NXT FCST BY 090200Z
CZYZ FIR / North America



MET'MAP, your aeronautical weather chart ! - Copyright ORBIFLY December 2007 - Disclaimer

ORBIFLY MET'MAP TEAM :

Programming & Development : Alexandra Zaïnal
Concept & original design : Baudouin d'Aumeries
Assistance for programming : Marc-Olivier Méhu
Technical & hardware support : Manuel Goepfert

Contact : metmap@orbifly.com




SOURCES & CREDITS :

   NOAA       Earth
Advisory